createdAt,value
2018-09-30T00:00:12.204Z,80.29
2018-09-30T00:02:39.185Z,80.05
2018-09-30T00:05:06.150Z,80.45
2018-09-30T00:07:33.094Z,81.02
2018-09-30T00:10:00.037Z,80.16
2018-09-30T00:12:27.008Z,80.15
2018-09-30T00:14:53.971Z,80.26
2018-09-30T00:17:20.930Z,80.45
2018-09-30T00:19:47.875Z,80.75
2018-09-30T00:22:14.843Z,81.53
2018-09-30T00:24:47.507Z,80.98
2018-09-30T00:27:17.463Z,81.62
2018-09-30T00:29:44.410Z,80.99
2018-09-30T00:32:11.365Z,81.66
2018-09-30T00:34:38.324Z,81.73
2018-09-30T00:37:05.328Z,81.00
2018-09-30T00:39:32.269Z,81.31
2018-09-30T00:41:59.248Z,80.96
2018-09-30T00:44:26.192Z,81.61
2018-09-30T00:46:53.597Z,80.92
2018-09-30T00:49:20.559Z,81.61
2018-09-30T00:51:47.514Z,81.04
2018-09-30T00:54:14.837Z,82.09
2018-09-30T00:56:42.109Z,81.75
2018-09-30T00:59:09.462Z,82.03
2018-09-30T01:01:36.409Z,82.16
2018-09-30T01:04:03.424Z,81.69
2018-09-30T01:06:30.384Z,81.48
2018-09-30T01:08:57.350Z,82.22
2018-09-30T01:11:24.323Z,82.21
2018-09-30T01:13:51.297Z,82.17
2018-09-30T01:16:18.485Z,81.72
2018-09-30T01:18:45.445Z,81.51
2018-09-30T01:21:12.397Z,81.66
2018-09-30T01:23:39.353Z,82.20
2018-09-30T01:26:06.301Z,82.31
2018-09-30T01:28:33.525Z,81.27
2018-09-30T01:31:01.307Z,81.42
2018-09-30T01:33:28.613Z,81.51
2018-09-30T01:38:29.298Z,81.87
2018-09-30T01:40:56.337Z,81.01
2018-09-30T01:43:23.304Z,81.19
2018-09-30T01:45:50.257Z,81.34
2018-09-30T01:48:17.271Z,81.21
2018-09-30T01:50:44.261Z,81.54
2018-09-30T01:53:11.226Z,81.75
2018-09-30T01:55:38.184Z,81.72
2018-09-30T01:58:05.178Z,81.34
2018-09-30T02:00:32.130Z,81.66
2018-09-30T02:02:59.073Z,80.90
2018-09-30T02:05:26.014Z,81.02
2018-09-30T02:07:52.974Z,81.60
2018-09-30T02:10:19.935Z,81.51
2018-09-30T02:12:46.889Z,81.12
2018-09-30T02:15:13.842Z,81.00
2018-09-30T02:17:40.833Z,81.70
2018-09-30T02:20:07.812Z,81.20
2018-09-30T02:22:34.761Z,81.55
2018-09-30T02:25:01.714Z,80.81
2018-09-30T02:27:28.666Z,80.97
2018-09-30T02:29:55.628Z,80.73
2018-09-30T02:32:23.065Z,80.64
2018-09-30T02:34:50.138Z,80.95
2018-09-30T02:37:17.042Z,80.21
2018-09-30T02:39:44.061Z,80.82
2018-09-30T02:42:11.669Z,80.30
2018-09-30T02:44:38.638Z,80.48
2018-09-30T02:47:05.646Z,79.95
2018-09-30T02:49:32.629Z,80.87
2018-09-30T02:51:59.604Z,80.83
2018-09-30T02:54:26.564Z,80.05
2018-09-30T02:56:53.497Z,79.65
2018-09-30T02:59:20.563Z,79.91
2018-09-30T03:01:47.525Z,79.75
2018-09-30T03:04:14.505Z,80.29
2018-09-30T03:06:47.293Z,79.75
2018-09-30T03:09:16.717Z,80.12
2018-09-30T03:11:43.681Z,80.93
2018-09-30T03:14:11.912Z,80.25
2018-09-30T03:16:39.154Z,81.01
2018-09-30T03:19:06.150Z,80.47
2018-09-30T03:21:33.117Z,79.99
2018-09-30T03:24:00.061Z,80.21
2018-09-30T03:29:00.793Z,81.16
2018-09-30T03:31:27.752Z,80.19
2018-09-30T03:33:54.742Z,80.42
2018-09-30T03:36:21.709Z,81.10
2018-09-30T03:38:48.678Z,81.28
2018-09-30T03:41:15.651Z,80.57
2018-09-30T03:43:42.626Z,81.40
2018-09-30T03:46:09.615Z,80.88
2018-09-30T03:48:36.580Z,81.64
2018-09-30T03:51:03.589Z,81.54
2018-09-30T03:53:30.575Z,81.56
2018-09-30T03:55:57.662Z,81.44
2018-09-30T03:58:24.642Z,81.75
2018-09-30T04:00:51.646Z,81.59
2018-09-30T04:03:18.842Z,81.58
2018-09-30T04:05:45.989Z,80.84
2018-09-30T04:08:12.950Z,80.90
2018-09-30T04:10:39.932Z,81.67
2018-09-30T04:13:06.906Z,80.69
2018-09-30T04:15:33.910Z,81.29
2018-09-30T04:18:00.866Z,81.31
2018-09-30T04:20:27.864Z,81.49
2018-09-30T04:22:54.850Z,81.10
2018-09-30T04:25:21.876Z,81.16
2018-09-30T04:27:48.869Z,81.37
2018-09-30T04:30:15.860Z,80.42
2018-09-30T04:32:42.872Z,80.42
2018-09-30T04:35:09.861Z,80.28
2018-09-30T04:37:36.840Z,80.38
2018-09-30T04:40:03.808Z,80.14
2018-09-30T04:42:30.761Z,80.85
2018-09-30T04:44:57.726Z,80.74
2018-09-30T04:47:24.660Z,79.86
2018-09-30T04:49:51.680Z,79.92
2018-09-30T04:52:18.585Z,80.21
2018-09-30T04:54:45.548Z,80.20
2018-09-30T04:57:12.565Z,80.40
2018-09-30T04:59:39.515Z,79.83
2018-09-30T05:02:06.509Z,80.09
2018-09-30T05:04:33.496Z,80.70
2018-09-30T05:07:00.489Z,79.71
2018-09-30T05:09:27.449Z,79.75
2018-09-30T05:11:54.430Z,80.41
2018-09-30T05:14:21.390Z,79.53
2018-09-30T05:16:48.509Z,80.45
2018-09-30T05:19:15.505Z,79.61
2018-09-30T05:21:42.460Z,80.54
2018-09-30T05:24:09.411Z,80.36
2018-09-30T05:26:36.374Z,80.43
2018-09-30T05:29:03.345Z,79.90
2018-09-30T05:31:30.325Z,79.85
2018-09-30T05:33:57.293Z,80.08
2018-09-30T05:36:24.256Z,80.59
2018-09-30T05:38:51.252Z,80.88
2018-09-30T05:41:18.230Z,80.36
2018-09-30T05:43:45.168Z,79.80
2018-09-30T05:46:12.139Z,79.89
2018-09-30T05:48:39.110Z,79.49
2018-09-30T05:51:06.093Z,79.32
2018-09-30T05:53:33.067Z,78.97
2018-09-30T05:56:00.042Z,79.27
2018-09-30T05:58:27.012Z,79.95
2018-09-30T06:00:53.981Z,79.71
2018-09-30T06:03:20.938Z,79.01
2018-09-30T06:05:47.967Z,78.74
2018-09-30T06:08:14.931Z,79.59
2018-09-30T06:10:41.914Z,78.58
2018-09-30T06:13:08.879Z,79.15
2018-09-30T06:15:35.840Z,78.77
2018-09-30T06:18:02.807Z,79.09
2018-09-30T06:20:29.777Z,79.41
2018-09-30T06:22:56.753Z,79.31
2018-09-30T06:25:23.754Z,79.78
2018-09-30T06:27:50.735Z,78.80
2018-09-30T06:30:17.694Z,79.58
2018-09-30T06:32:44.666Z,78.76
2018-09-30T06:35:11.648Z,79.84
2018-09-30T06:37:38.612Z,79.79
2018-09-30T06:40:05.623Z,78.83
2018-09-30T06:42:32.580Z,79.63
2018-09-30T06:44:59.534Z,79.46
2018-09-30T06:47:26.493Z,78.64
2018-09-30T06:49:53.455Z,79.09
2018-09-30T06:52:20.413Z,78.05
2018-09-30T06:54:47.366Z,78.07
2018-09-30T06:57:14.316Z,78.15
2018-09-30T06:59:41.286Z,77.42
2018-09-30T07:02:08.256Z,77.55
2018-09-30T07:04:35.217Z,77.17
2018-09-30T07:07:02.190Z,77.68
2018-09-30T07:09:29.133Z,76.33
2018-09-30T07:11:56.080Z,76.36
2018-09-30T07:14:23.073Z,76.14
2018-09-30T07:16:50.052Z,75.45
2018-09-30T07:19:17.018Z,75.54
2018-09-30T07:21:43.990Z,75.29
2018-09-30T07:24:10.958Z,74.19
2018-09-30T07:26:37.914Z,74.08
2018-09-30T07:29:04.881Z,74.64
2018-09-30T07:31:31.939Z,74.11
2018-09-30T07:33:58.933Z,73.36
2018-09-30T07:36:25.905Z,73.73
2018-09-30T07:38:52.872Z,73.16
2018-09-30T07:41:19.840Z,72.61
2018-09-30T07:43:46.783Z,71.10
2018-09-30T07:46:13.785Z,70.42
2018-09-30T07:48:40.737Z,69.51
2018-09-30T07:51:07.733Z,69.17
2018-09-30T07:53:34.714Z,69.71
2018-09-30T07:56:01.695Z,69.07
2018-09-30T07:58:28.690Z,69.45
2018-09-30T08:00:55.718Z,68.36
2018-09-30T08:03:22.702Z,69.12
2018-09-30T08:05:49.685Z,68.90
2018-09-30T08:08:16.726Z,69.16
2018-09-30T08:10:43.705Z,69.08
2018-09-30T08:13:10.687Z,68.26
2018-09-30T08:15:37.642Z,68.47
2018-09-30T08:18:04.729Z,67.82
2018-09-30T08:20:31.700Z,68.06
2018-09-30T08:22:58.714Z,67.71
2018-09-30T08:25:25.738Z,66.63
2018-09-30T08:27:52.784Z,66.50
2018-09-30T08:30:19.738Z,65.93
2018-09-30T08:32:46.709Z,66.91
2018-09-30T08:35:13.713Z,65.46
2018-09-30T08:37:46.365Z,62.74
2018-09-30T08:40:17.582Z,62.19
2018-09-30T08:42:44.568Z,61.71
2018-09-30T08:45:11.535Z,60.15
2018-09-30T08:47:38.544Z,61.23
2018-09-30T08:50:05.548Z,61.48
2018-09-30T08:52:32.524Z,60.41
2018-09-30T08:54:59.485Z,58.33
2018-09-30T08:57:26.457Z,60.04
2018-09-30T08:59:53.409Z,60.61
2018-09-30T09:02:20.388Z,60.53
2018-09-30T09:04:47.408Z,60.22
2018-09-30T09:07:14.399Z,61.84
2018-09-30T09:09:41.389Z,60.16
2018-09-30T09:12:08.322Z,60.30
2018-09-30T09:14:35.288Z,60.14
2018-09-30T09:17:02.274Z,59.84
2018-09-30T09:19:29.285Z,61.40
2018-09-30T09:21:56.250Z,61.77
2018-09-30T09:24:23.217Z,60.50
2018-09-30T09:26:50.172Z,60.33
2018-09-30T09:29:17.137Z,61.53
2018-09-30T09:31:44.171Z,60.96
2018-09-30T09:34:11.123Z,62.17
2018-09-30T09:36:38.061Z,61.42
2018-09-30T09:39:07.899Z,60.42
2018-09-30T09:41:35.231Z,60.53
2018-09-30T09:44:02.260Z,61.05
2018-09-30T09:46:29.230Z,58.93
2018-09-30T09:48:56.183Z,59.75
2018-09-30T09:51:23.113Z,58.93
2018-09-30T09:53:50.062Z,57.64
2018-09-30T09:56:17.006Z,57.31
2018-09-30T09:58:43.991Z,58.94
2018-09-30T10:01:10.969Z,58.07
2018-09-30T10:03:37.967Z,57.65
2018-09-30T10:06:04.933Z,58.41
2018-09-30T10:08:31.922Z,57.67
2018-09-30T10:10:58.928Z,56.13
2018-09-30T10:13:25.879Z,56.41
2018-09-30T10:15:52.837Z,56.93
2018-09-30T10:18:19.809Z,56.55
2018-09-30T10:20:46.745Z,56.49
2018-09-30T10:23:13.709Z,56.34
2018-09-30T10:25:40.645Z,54.49
2018-09-30T10:28:07.613Z,56.17
2018-09-30T10:30:34.593Z,56.58
2018-09-30T10:33:01.546Z,57.20
2018-09-30T10:35:28.501Z,54.69
2018-09-30T10:37:55.448Z,54.70
2018-09-30T10:40:22.410Z,55.21
2018-09-30T10:42:49.366Z,55.73
2018-09-30T10:45:16.329Z,54.92
2018-09-30T10:47:43.334Z,53.75
2018-09-30T10:50:10.292Z,54.73
2018-09-30T10:52:37.229Z,53.44
2018-09-30T10:55:04.548Z,54.28
2018-09-30T10:57:31.498Z,55.54
2018-09-30T10:59:58.461Z,55.70
2018-09-30T11:02:25.561Z,55.71
2018-09-30T11:04:52.523Z,54.64
2018-09-30T11:07:19.490Z,53.80
2018-09-30T11:09:46.551Z,54.60
2018-09-30T11:12:13.468Z,54.27
2018-09-30T11:14:40.429Z,53.33
2018-09-30T11:17:07.393Z,53.83
2018-09-30T11:19:34.373Z,53.88
2018-09-30T11:22:01.353Z,54.47
2018-09-30T11:24:28.311Z,55.70
2018-09-30T11:26:55.441Z,55.72
2018-09-30T11:29:22.410Z,56.26
2018-09-30T11:31:49.411Z,56.04
2018-09-30T11:34:16.381Z,56.41
2018-09-30T11:36:43.344Z,54.89
2018-09-30T11:39:11.345Z,55.34
2018-09-30T11:41:38.381Z,55.08
2018-09-30T11:44:05.362Z,55.25
2018-09-30T11:46:33.380Z,54.30
2018-09-30T11:49:00.353Z,52.81
2018-09-30T11:51:27.538Z,53.90
2018-09-30T11:53:54.486Z,53.87
2018-09-30T11:56:21.575Z,52.66
2018-09-30T11:58:48.784Z,52.77
2018-09-30T12:01:15.858Z,53.89
2018-09-30T12:03:42.927Z,53.45
2018-09-30T12:06:09.992Z,54.42
2018-09-30T12:08:37.056Z,53.95
2018-09-30T12:11:04.641Z,52.89
2018-09-30T12:13:31.893Z,53.65
2018-09-30T12:15:59.311Z,55.15
2018-09-30T12:18:26.560Z,53.57
2018-09-30T12:20:53.660Z,53.76
2018-09-30T12:23:20.839Z,53.45
2018-09-30T12:25:48.308Z,51.97
2018-09-30T12:28:16.155Z,51.51
2018-09-30T12:30:44.154Z,52.16
2018-09-30T12:33:11.788Z,52.53
2018-09-30T12:35:38.765Z,53.21
2018-09-30T12:38:05.718Z,54.28
2018-09-30T12:40:32.684Z,55.32
2018-09-30T12:42:59.636Z,56.03
2018-09-30T12:45:26.606Z,54.98
2018-09-30T12:47:53.565Z,54.95
2018-09-30T12:50:20.545Z,55.65
2018-09-30T12:52:47.541Z,54.55
2018-09-30T12:55:14.500Z,54.71
2018-09-30T12:57:41.493Z,53.85
2018-09-30T13:00:09.248Z,54.84
2018-09-30T13:02:36.288Z,55.90
2018-09-30T13:05:03.314Z,54.31
2018-09-30T13:07:30.550Z,54.47
2018-09-30T13:09:57.566Z,56.06
2018-09-30T13:12:24.620Z,55.70
2018-09-30T13:14:51.761Z,55.65
2018-09-30T13:17:18.947Z,55.33
2018-09-30T13:19:46.052Z,54.62
2018-09-30T13:22:13.283Z,55.52
2018-09-30T13:24:40.285Z,54.80
2018-09-30T13:27:07.573Z,55.71
2018-09-30T13:29:34.681Z,55.85
2018-09-30T13:32:01.788Z,57.17
2018-09-30T13:34:28.781Z,56.87
2018-09-30T13:36:55.937Z,56.97
2018-09-30T13:39:23.055Z,56.78
2018-09-30T13:41:50.149Z,57.05
2018-09-30T13:44:17.187Z,57.71
2018-09-30T13:46:44.166Z,58.23
2018-09-30T13:49:11.265Z,57.37
2018-09-30T13:51:38.269Z,56.14
2018-09-30T13:54:05.577Z,56.72
2018-09-30T13:56:39.495Z,56.68
2018-09-30T13:59:06.539Z,57.61
2018-09-30T14:01:33.453Z,59.00
2018-09-30T14:04:00.451Z,59.21
2018-09-30T14:06:27.503Z,57.82
2018-09-30T14:08:54.548Z,58.92
2018-09-30T14:11:21.569Z,58.12
2018-09-30T14:13:48.556Z,58.03
2018-09-30T14:16:15.569Z,57.21
2018-09-30T14:18:42.508Z,58.41
2018-09-30T14:21:09.461Z,59.36
2018-09-30T14:23:36.778Z,59.29
2018-09-30T14:26:03.890Z,59.78
2018-09-30T14:28:31.084Z,60.02
2018-09-30T14:30:58.140Z,58.94
2018-09-30T14:33:25.270Z,59.91
2018-09-30T14:35:52.359Z,60.48
2018-09-30T14:38:19.478Z,59.72
2018-09-30T14:40:46.517Z,59.96
2018-09-30T14:43:13.623Z,59.85
2018-09-30T14:45:40.558Z,60.49
2018-09-30T14:48:07.655Z,61.91
2018-09-30T14:50:34.770Z,60.75
2018-09-30T14:53:01.896Z,62.11
2018-09-30T14:55:29.042Z,62.36
2018-09-30T14:57:57.098Z,61.85
2018-09-30T15:00:24.189Z,62.77
2018-09-30T15:02:51.331Z,62.51
2018-09-30T15:05:19.576Z,62.97
2018-09-30T15:07:46.754Z,63.08
2018-09-30T15:10:15.088Z,63.02
2018-09-30T15:12:44.540Z,63.94
2018-09-30T15:15:11.630Z,64.66
2018-09-30T15:17:38.813Z,66.11
2018-09-30T15:20:05.777Z,67.87
2018-09-30T15:22:32.867Z,68.28
2018-09-30T15:25:00.223Z,68.15
2018-09-30T15:27:27.284Z,67.85
2018-09-30T15:29:54.347Z,67.49
2018-09-30T15:32:21.397Z,67.38
2018-09-30T15:34:48.433Z,66.92
2018-09-30T15:37:15.472Z,67.21
2018-09-30T15:39:42.476Z,67.13
2018-09-30T15:42:09.488Z,67.07
2018-09-30T15:44:36.440Z,66.46
2018-09-30T15:47:03.405Z,66.02
2018-09-30T15:49:30.349Z,66.13
2018-09-30T15:51:57.400Z,66.19
2018-09-30T15:54:24.341Z,66.16
2018-09-30T15:56:51.393Z,66.07
2018-09-30T15:59:18.346Z,65.83
2018-09-30T16:01:45.314Z,65.65
2018-09-30T16:04:12.261Z,65.64
2018-09-30T16:06:39.217Z,66.01
2018-09-30T16:09:06.880Z,66.05
2018-09-30T16:11:33.832Z,66.52
2018-09-30T16:14:01.613Z,66.97
2018-09-30T16:16:28.548Z,67.25
2018-09-30T16:18:55.509Z,68.08
2018-09-30T16:21:22.497Z,68.72
2018-09-30T16:23:49.684Z,69.12
2018-09-30T16:26:17.989Z,69.52
2018-09-30T16:28:45.433Z,69.83
2018-09-30T16:31:12.404Z,70.19
2018-09-30T16:33:39.381Z,70.67
2018-09-30T16:36:06.370Z,71.14
2018-09-30T16:38:33.326Z,71.51
2018-09-30T16:41:00.296Z,71.73
2018-09-30T16:43:27.278Z,71.82
2018-09-30T16:45:54.232Z,72.18
2018-09-30T16:48:21.182Z,72.12
2018-09-30T16:50:48.142Z,72.52
2018-09-30T16:53:15.102Z,72.78
2018-09-30T16:55:42.084Z,73.29
2018-09-30T16:58:09.045Z,73.83
2018-09-30T17:00:36.105Z,73.60
2018-09-30T17:03:03.057Z,73.96
2018-09-30T17:05:30.009Z,74.24
2018-09-30T17:07:57.009Z,74.91
2018-09-30T17:10:23.966Z,75.58
2018-09-30T17:12:50.908Z,75.16
2018-09-30T17:15:17.850Z,75.85
2018-09-30T17:17:44.794Z,75.95
2018-09-30T17:20:11.729Z,76.41
2018-09-30T17:22:38.672Z,76.35
2018-09-30T17:25:05.687Z,77.12
2018-09-30T17:27:33.427Z,76.50
2018-09-30T17:30:00.392Z,77.14
2018-09-30T17:32:27.333Z,76.82
2018-09-30T17:34:54.293Z,76.77
2018-09-30T17:37:21.265Z,76.91
2018-09-30T17:39:48.191Z,76.90
2018-09-30T17:42:15.128Z,76.91
2018-09-30T17:44:42.070Z,77.40
2018-09-30T17:47:09.007Z,77.21
2018-09-30T17:49:35.949Z,77.39
2018-09-30T17:52:02.907Z,77.35
2018-09-30T17:54:29.838Z,77.41
2018-09-30T17:56:57.611Z,77.58
2018-09-30T17:59:24.889Z,77.46
2018-09-30T18:01:51.811Z,76.99
2018-09-30T18:04:18.769Z,77.18
2018-09-30T18:06:45.710Z,77.14
2018-09-30T18:09:12.661Z,76.88
2018-09-30T18:11:39.598Z,76.76
2018-09-30T18:14:06.592Z,76.74
2018-09-30T18:16:33.573Z,76.97
2018-09-30T18:19:00.530Z,76.38
2018-09-30T18:21:27.509Z,76.29
2018-09-30T18:23:54.467Z,76.14
2018-09-30T18:26:21.425Z,75.99
2018-09-30T18:28:48.768Z,76.12
2018-09-30T18:31:16.466Z,76.54
2018-09-30T18:33:43.442Z,76.07
2018-09-30T18:36:17.531Z,76.25
2018-09-30T18:38:44.661Z,75.97
2018-09-30T18:41:11.625Z,76.16
2018-09-30T18:43:39.063Z,76.23
2018-09-30T18:46:06.130Z,75.48
2018-09-30T18:48:33.134Z,75.52
2018-09-30T18:51:00.167Z,75.64
2018-09-30T18:53:27.692Z,75.17
2018-09-30T18:55:55.404Z,75.20
2018-09-30T18:58:24.547Z,75.39
2018-09-30T19:00:51.536Z,75.52
2018-09-30T19:03:18.507Z,75.67
2018-09-30T19:05:46.680Z,75.45
2018-09-30T19:08:14.335Z,75.43
2018-09-30T19:10:42.110Z,76.02
2018-09-30T19:13:09.064Z,75.77
2018-09-30T19:15:36.677Z,75.54
2018-09-30T19:18:03.983Z,75.80
2018-09-30T19:20:30.942Z,75.90
2018-09-30T19:22:58.053Z,75.25
2018-09-30T19:25:25.628Z,75.79
2018-09-30T19:27:52.779Z,75.87
2018-09-30T19:30:19.738Z,76.14
2018-09-30T19:32:46.836Z,75.85
2018-09-30T19:35:13.827Z,75.61
2018-09-30T19:37:40.749Z,75.65
2018-09-30T19:40:07.709Z,75.53
2018-09-30T19:42:34.648Z,75.84
2018-09-30T19:45:01.638Z,75.61
2018-09-30T19:47:29.080Z,75.72
2018-09-30T19:49:56.035Z,75.84
2018-09-30T19:52:23.003Z,75.50
2018-09-30T19:54:49.972Z,74.96
2018-09-30T19:57:17.030Z,75.59
2018-09-30T19:59:44.078Z,75.64
2018-09-30T20:02:11.073Z,75.49
2018-09-30T20:04:38.626Z,74.77
2018-09-30T20:07:06.242Z,75.26
2018-09-30T20:09:33.342Z,75.11
2018-09-30T20:12:00.266Z,75.19
2018-09-30T20:14:27.383Z,76.03
2018-09-30T20:16:54.793Z,76.56
2018-09-30T20:19:21.778Z,75.86
2018-09-30T20:21:48.991Z,76.20
2018-09-30T20:24:15.954Z,76.37
2018-09-30T20:26:43.138Z,77.10
2018-09-30T20:29:10.165Z,77.94
2018-09-30T20:31:44.075Z,78.41
2018-09-30T20:34:11.022Z,78.00
2018-09-30T20:36:37.975Z,78.48
2018-09-30T20:39:05.815Z,78.62
2018-09-30T20:41:33.875Z,78.81
2018-09-30T20:44:00.961Z,79.14
2018-09-30T20:46:27.992Z,79.93
2018-09-30T20:48:54.954Z,81.02
2018-09-30T20:51:21.955Z,81.77
2018-09-30T20:53:48.901Z,82.46
2018-09-30T20:56:15.871Z,82.94
2018-09-30T20:58:43.035Z,83.43
2018-09-30T21:01:10.024Z,83.82
2018-09-30T21:03:37.227Z,84.20
2018-09-30T21:06:19.192Z,84.86
2018-09-30T21:08:46.125Z,85.48
2018-09-30T21:11:13.100Z,85.74
2018-09-30T21:13:41.705Z,86.02
2018-09-30T21:16:08.764Z,86.20
2018-09-30T21:18:35.724Z,86.26
2018-09-30T21:21:02.655Z,86.62
2018-09-30T21:23:29.594Z,86.61
2018-09-30T21:25:56.763Z,87.55
2018-09-30T21:28:23.955Z,87.92
2018-09-30T21:30:51.484Z,87.90
2018-09-30T21:33:18.436Z,88.22
2018-09-30T21:35:45.869Z,88.49
2018-09-30T21:38:12.813Z,88.60
2018-09-30T21:40:39.790Z,88.83
2018-09-30T21:43:06.738Z,89.17
2018-09-30T21:45:33.696Z,88.94
2018-09-30T21:48:00.669Z,89.56
2018-09-30T21:50:27.629Z,89.82
2018-09-30T21:52:54.593Z,89.45
2018-09-30T21:55:21.561Z,88.38
2018-09-30T21:57:48.562Z,88.34
2018-09-30T22:00:20.225Z,89.01
2018-09-30T22:02:47.286Z,88.78
2018-09-30T22:05:14.253Z,89.16
2018-09-30T22:07:41.223Z,89.34
2018-09-30T22:10:08.197Z,88.93
2018-09-30T22:12:35.182Z,88.76
2018-09-30T22:15:02.149Z,89.24
2018-09-30T22:17:29.120Z,90.01
2018-09-30T22:19:56.099Z,90.18
2018-09-30T22:22:23.063Z,90.17
2018-09-30T22:24:50.105Z,90.52
2018-09-30T22:27:17.089Z,90.85
2018-09-30T22:29:44.060Z,90.68
2018-09-30T22:32:11.041Z,90.22
2018-09-30T22:34:38.033Z,90.73
2018-09-30T22:37:04.990Z,90.54
2018-09-30T22:39:31.961Z,90.04
2018-09-30T22:41:58.924Z,91.29
2018-09-30T22:44:32.753Z,92.09
2018-09-30T22:46:59.714Z,91.88
2018-09-30T22:49:26.673Z,92.20
2018-09-30T22:51:54.466Z,91.60
2018-09-30T22:54:21.425Z,92.33
2018-09-30T22:56:48.411Z,92.34
2018-09-30T22:59:15.360Z,92.42
2018-09-30T23:01:42.311Z,91.70
2018-09-30T23:04:09.248Z,91.63
2018-09-30T23:06:36.230Z,91.76
2018-09-30T23:09:04.642Z,91.90
2018-09-30T23:11:31.593Z,91.92
2018-09-30T23:13:58.538Z,91.72
2018-09-30T23:16:25.473Z,91.66
2018-09-30T23:18:52.436Z,91.20
2018-09-30T23:21:19.394Z,91.89
2018-09-30T23:23:46.346Z,91.68
2018-09-30T23:26:13.296Z,92.32
2018-09-30T23:28:40.256Z,92.30
2018-09-30T23:31:07.206Z,92.45
2018-09-30T23:33:34.183Z,92.16
2018-09-30T23:36:01.176Z,92.37
2018-09-30T23:38:28.141Z,93.18
2018-09-30T23:40:55.097Z,92.78
2018-09-30T23:43:22.065Z,93.50
2018-09-30T23:45:49.005Z,93.34
2018-09-30T23:48:15.970Z,93.34
2018-09-30T23:50:42.932Z,93.07
2018-09-30T23:53:09.893Z,93.04
2018-09-30T23:55:36.845Z,93.05
2018-09-30T23:58:10.292Z,93.06
